Terminal Aerodrome Forecast
Issued by NWS Billings, MT

Home | Current Version | Previous Version | Text Only | Print | Product List | Glossary On
Versions: 1 2 3 4 5 6 7 8 9 10 11 12 13 14 15 16 17 18 19 20 21 22 23 24 25
000
FTUS45 KBYZ 032322
TAFSHR
TAF
KSHR 032322Z 0400/0424 29010KT P6SM SCT040 BKN080
     FM040300 VRB04KT P6SM SCT020 WS015/31025KT
     FM040700 31015KT P6SM FEW040 SCT080
     FM041500 VRB06KT P6SM SCT050=

USA.gov is the U.S. government's official web portal to all federal, state and local government web resources and services.